createdAt,value
2022-10-16T00:01:40.666Z,0.90
2022-10-16T00:04:07.605Z,0.77
2022-10-16T00:06:34.233Z,0.77
2022-10-16T00:09:01.207Z,0.70
2022-10-16T00:11:30.999Z,0.62
2022-10-16T00:14:00.017Z,0.98
2022-10-16T00:16:27.488Z,0.98
2022-10-16T00:18:55.006Z,1.42
2022-10-16T00:21:27.634Z,1.10
2022-10-16T00:24:00.917Z,1.67
2022-10-16T00:26:29.159Z,0.93
2022-10-16T00:28:56.374Z,0.75
2022-10-16T00:31:24.073Z,0.88
2022-10-16T00:33:51.166Z,1.02
2022-10-16T00:36:22.510Z,0.73
2022-10-16T00:38:55.619Z,1.37
2022-10-16T00:41:25.340Z,1.60
2022-10-16T00:43:55.129Z,1.02
2022-10-16T00:46:24.738Z,1.10
2022-10-16T00:49:04.412Z,1.30
2022-10-16T00:51:36.802Z,1.05
2022-10-16T00:54:09.163Z,0.60
2022-10-16T00:56:35.798Z,0.75
2022-10-16T00:59:08.674Z,1.10
2022-10-16T01:01:35.723Z,1.20
2022-10-16T01:04:02.514Z,1.00
2022-10-16T01:06:43.914Z,1.67
2022-10-16T01:09:17.314Z,1.35
2022-10-16T01:12:02.194Z,1.33
2022-10-16T01:14:57.426Z,1.70
2022-10-16T01:17:34.266Z,1.12
2022-10-16T01:20:27.400Z,1.65
2022-10-16T01:23:07.551Z,1.45
2022-10-16T01:25:55.063Z,1.20
2022-10-16T01:28:28.257Z,1.40
2022-10-16T01:30:59.307Z,0.98
2022-10-16T01:33:34.679Z,1.80
2022-10-16T01:36:10.293Z,0.90
2022-10-16T01:38:40.049Z,1.48
2022-10-16T01:41:19.575Z,1.23
2022-10-16T01:43:58.036Z,1.20
2022-10-16T01:46:25.616Z,1.17
2022-10-16T01:48:53.413Z,1.23
2022-10-16T01:51:21.527Z,1.80
2022-10-16T01:53:56.312Z,1.35
2022-10-16T01:56:25.243Z,1.25
2022-10-16T01:58:58.365Z,1.62
2022-10-16T02:01:29.271Z,2.05
2022-10-16T02:04:00.920Z,1.47
2022-10-16T02:06:27.556Z,1.52
2022-10-16T02:08:54.819Z,1.45
2022-10-16T02:11:22.052Z,1.30
2022-10-16T02:13:56.678Z,1.20
2022-10-16T02:16:33.835Z,1.60
2022-10-16T02:19:00.646Z,1.40
2022-10-16T02:21:32.333Z,1.12
2022-10-16T02:24:07.637Z,2.27
2022-10-16T02:26:55.582Z,1.60
2022-10-16T02:29:26.382Z,2.08
2022-10-16T02:32:05.220Z,1.05
2022-10-16T02:34:33.850Z,1.37
2022-10-16T02:37:04.991Z,1.27
2022-10-16T02:39:32.431Z,1.80
2022-10-16T02:41:59.113Z,1.00
2022-10-16T02:44:26.191Z,1.15
2022-10-16T02:46:52.854Z,2.22
2022-10-16T02:49:19.701Z,1.85
2022-10-16T02:51:46.755Z,0.98
2022-10-16T02:54:14.022Z,1.85
2022-10-16T02:56:40.654Z,2.12
2022-10-16T02:59:07.563Z,1.08
2022-10-16T03:01:34.313Z,1.75
2022-10-16T03:04:00.962Z,2.03
2022-10-16T03:06:27.866Z,1.70
2022-10-16T03:08:54.469Z,1.52
2022-10-16T03:11:21.061Z,1.58
2022-10-16T03:13:47.938Z,1.90
2022-10-16T03:16:14.678Z,2.53
2022-10-16T03:18:41.447Z,2.10
2022-10-16T03:21:08.547Z,1.50
2022-10-16T03:23:35.167Z,1.40
2022-10-16T03:26:01.748Z,1.92
2022-10-16T03:28:28.734Z,1.58
2022-10-16T03:30:55.416Z,1.55
2022-10-16T03:33:22.002Z,1.35
2022-10-16T03:35:55.648Z,2.08
2022-10-16T03:38:22.746Z,1.42
2022-10-16T03:40:49.679Z,1.30
2022-10-16T03:43:16.509Z,1.70
2022-10-16T03:45:43.662Z,1.50
2022-10-16T03:48:10.574Z,2.15
2022-10-16T03:50:37.422Z,1.58
2022-10-16T03:53:04.435Z,2.30
2022-10-16T03:55:31.355Z,1.35
2022-10-16T03:57:58.050Z,1.40
2022-10-16T04:00:24.748Z,2.87
2022-10-16T04:02:51.672Z,1.62
2022-10-16T04:05:18.331Z,2.22
2022-10-16T04:07:45.056Z,2.12
2022-10-16T04:10:11.940Z,1.70
2022-10-16T04:12:38.605Z,1.05
2022-10-16T04:15:05.629Z,2.20
2022-10-16T04:17:32.588Z,1.80
2022-10-16T04:19:59.215Z,2.30
2022-10-16T04:22:28.814Z,2.85
2022-10-16T04:24:55.685Z,1.37
2022-10-16T04:27:22.331Z,1.08
2022-10-16T04:29:49.015Z,2.00
2022-10-16T04:32:15.929Z,1.52
2022-10-16T04:34:42.629Z,1.67
2022-10-16T04:37:09.305Z,1.37
2022-10-16T04:39:36.201Z,1.77
2022-10-16T04:42:03.703Z,1.58
2022-10-16T04:44:30.499Z,1.70
2022-10-16T04:46:57.382Z,2.10
2022-10-16T04:49:24.118Z,2.20
2022-10-16T04:51:50.791Z,1.15
2022-10-16T04:54:17.720Z,1.65
2022-10-16T04:56:48.024Z,1.27
2022-10-16T04:59:15.933Z,1.35
2022-10-16T05:01:43.232Z,1.10
2022-10-16T05:04:10.919Z,1.62
2022-10-16T05:06:39.538Z,1.33
2022-10-16T05:09:06.763Z,1.10
2022-10-16T05:11:33.809Z,1.95
2022-10-16T05:14:01.006Z,1.70
2022-10-16T05:16:28.130Z,2.05
2022-10-16T05:18:56.261Z,1.52
2022-10-16T05:21:37.222Z,1.17
2022-10-16T05:24:03.974Z,1.77
2022-10-16T05:26:30.677Z,2.03
2022-10-16T05:28:57.609Z,1.80
2022-10-16T05:31:24.476Z,1.60
2022-10-16T05:33:51.096Z,1.20
2022-10-16T05:36:19.216Z,1.23
2022-10-16T05:38:45.901Z,0.30
2022-10-16T05:41:12.611Z,1.10
2022-10-16T05:43:39.468Z,1.17
2022-10-16T05:46:06.844Z,1.37
2022-10-16T05:48:34.268Z,1.80
2022-10-16T05:51:08.029Z,1.30
2022-10-16T05:53:36.832Z,1.85
2022-10-16T05:56:05.009Z,0.95
2022-10-16T05:58:34.776Z,1.62
2022-10-16T06:01:08.113Z,1.27
2022-10-16T06:03:35.578Z,1.25
2022-10-16T06:06:14.288Z,1.15
2022-10-16T06:08:42.572Z,1.30
2022-10-16T06:11:12.701Z,0.80
2022-10-16T06:13:42.097Z,1.05
2022-10-16T06:16:10.331Z,1.55
2022-10-16T06:18:37.589Z,1.17
2022-10-16T06:21:12.739Z,1.27
2022-10-16T06:23:39.803Z,1.27
2022-10-16T06:26:08.539Z,0.95
2022-10-16T06:28:35.520Z,1.12
2022-10-16T06:31:07.326Z,0.73
2022-10-16T06:33:36.107Z,0.30
2022-10-16T06:36:05.085Z,1.20
2022-10-16T06:38:31.848Z,0.85
2022-10-16T06:40:59.400Z,1.05
2022-10-16T06:43:27.168Z,1.12
2022-10-16T06:45:58.119Z,1.33
2022-10-16T06:48:25.366Z,0.90
2022-10-16T06:51:01.316Z,0.88
2022-10-16T06:53:36.010Z,1.75
2022-10-16T06:56:20.408Z,1.20
2022-10-16T06:58:47.859Z,0.88
2022-10-16T07:01:16.659Z,1.58
2022-10-16T07:03:45.076Z,0.95
2022-10-16T07:06:13.824Z,0.60
2022-10-16T07:08:43.220Z,1.23
2022-10-16T07:11:12.439Z,0.57
2022-10-16T07:13:41.412Z,1.40
2022-10-16T07:16:10.974Z,1.42
2022-10-16T07:18:40.002Z,1.00
2022-10-16T07:21:12.421Z,1.08
2022-10-16T07:23:39.286Z,0.98
2022-10-16T07:26:06.812Z,1.20
2022-10-16T07:28:34.502Z,1.17
2022-10-16T07:31:03.213Z,1.10
2022-10-16T07:33:30.143Z,2.00
2022-10-16T07:35:57.149Z,1.45
2022-10-16T07:38:23.847Z,0.98
2022-10-16T07:40:58.601Z,1.30
2022-10-16T07:43:26.681Z,0.90
2022-10-16T07:45:54.167Z,1.33
2022-10-16T07:48:20.888Z,1.10
2022-10-16T07:50:48.115Z,0.93
2022-10-16T07:53:15.631Z,1.40
2022-10-16T07:55:42.612Z,1.85
2022-10-16T07:58:09.746Z,1.30
2022-10-16T08:00:38.133Z,1.42
2022-10-16T08:03:05.144Z,1.08
2022-10-16T08:05:33.801Z,1.08
2022-10-16T08:08:01.337Z,0.57
2022-10-16T08:10:29.974Z,1.85
2022-10-16T08:12:56.676Z,1.77
2022-10-16T08:15:23.521Z,1.35
2022-10-16T08:18:02.417Z,1.08
2022-10-16T08:20:30.018Z,0.77
2022-10-16T08:22:57.343Z,1.52
2022-10-16T08:25:25.052Z,0.93
2022-10-16T08:27:52.479Z,1.27
2022-10-16T08:30:20.703Z,1.52
2022-10-16T08:32:47.410Z,1.35
2022-10-16T08:35:15.146Z,0.75
2022-10-16T08:37:42.555Z,0.95
2022-10-16T08:40:19.737Z,1.48
2022-10-16T08:43:20.366Z,0.62
2022-10-16T08:45:59.928Z,1.12
2022-10-16T08:48:48.842Z,1.02
2022-10-16T08:51:26.520Z,1.17
2022-10-16T08:54:00.427Z,1.17
2022-10-16T08:56:27.240Z,0.70
2022-10-16T08:58:59.895Z,1.02
2022-10-16T09:01:45.430Z,1.33
2022-10-16T09:04:45.218Z,0.80
2022-10-16T09:07:22.128Z,0.88
2022-10-16T09:09:59.491Z,0.85
2022-10-16T09:12:37.818Z,0.85
2022-10-16T09:15:32.717Z,0.77
2022-10-16T09:18:11.140Z,0.52
2022-10-16T09:21:04.586Z,1.17
2022-10-16T09:23:36.082Z,0.52
2022-10-16T09:26:04.659Z,0.28
2022-10-16T09:28:31.445Z,0.77
2022-10-16T09:30:58.316Z,0.75
2022-10-16T09:33:31.496Z,0.70
2022-10-16T09:35:59.882Z,0.95
2022-10-16T09:38:30.368Z,0.47
2022-10-16T09:41:03.066Z,0.82
2022-10-16T09:43:47.379Z,0.70
2022-10-16T09:46:32.410Z,0.80
2022-10-16T09:49:06.170Z,0.88
2022-10-16T09:51:37.971Z,1.17
2022-10-16T09:54:08.117Z,0.60
2022-10-16T09:56:37.347Z,0.52
2022-10-16T09:59:12.336Z,0.90
2022-10-16T10:01:42.650Z,0.90
2022-10-16T10:04:10.531Z,0.73
2022-10-16T10:06:57.965Z,0.68
2022-10-16T10:09:34.295Z,0.60
2022-10-16T10:14:52.759Z,0.60
2022-10-16T10:17:22.491Z,0.73
2022-10-16T10:19:56.595Z,0.70
2022-10-16T10:22:40.272Z,1.10
2022-10-16T10:25:10.302Z,0.85
2022-10-16T10:28:02.488Z,0.80
2022-10-16T10:31:11.707Z,0.50
2022-10-16T10:33:47.924Z,0.45
2022-10-16T10:36:33.401Z,0.45
2022-10-16T10:39:05.119Z,0.60
2022-10-16T10:44:39.203Z,0.55
2022-10-16T10:47:24.453Z,0.65
2022-10-16T10:50:02.850Z,0.37
2022-10-16T10:52:39.108Z,0.45
2022-10-16T10:55:28.823Z,0.95
2022-10-16T10:58:02.119Z,0.60
2022-10-16T11:00:47.373Z,0.68
2022-10-16T11:03:23.613Z,0.43
2022-10-16T11:05:59.524Z,0.50
2022-10-16T11:08:34.791Z,0.93
2022-10-16T11:11:24.251Z,0.52
2022-10-16T11:14:17.841Z,0.60
2022-10-16T11:16:53.998Z,0.30
2022-10-16T11:19:55.447Z,0.40
2022-10-16T11:22:35.530Z,0.30
2022-10-16T11:25:14.590Z,0.55
2022-10-16T11:27:43.967Z,0.77
2022-10-16T11:30:25.429Z,0.40
2022-10-16T11:33:13.339Z,0.65
2022-10-16T11:35:47.992Z,0.73
2022-10-16T11:38:27.303Z,0.50
2022-10-16T11:40:58.748Z,0.28
2022-10-16T11:43:40.404Z,0.88
2022-10-16T11:48:45.132Z,0.40
2022-10-16T11:51:32.807Z,0.73
2022-10-16T11:54:11.738Z,0.55
2022-10-16T11:56:42.010Z,0.80
2022-10-16T11:59:21.873Z,0.77
2022-10-16T12:01:58.115Z,0.85
2022-10-16T12:04:46.745Z,1.10
2022-10-16T12:07:19.347Z,0.47
2022-10-16T12:09:46.274Z,0.50
2022-10-16T12:12:31.401Z,0.30
2022-10-16T12:15:16.271Z,0.80
2022-10-16T12:17:46.839Z,0.52
2022-10-16T12:20:13.647Z,0.88
2022-10-16T12:22:49.082Z,0.43
2022-10-16T12:25:29.104Z,1.00
2022-10-16T12:27:58.006Z,0.90
2022-10-16T12:30:29.015Z,0.57
2022-10-16T12:33:07.414Z,0.90
2022-10-16T12:35:45.412Z,0.17
2022-10-16T12:38:27.613Z,0.37
2022-10-16T12:41:09.504Z,0.30
2022-10-16T12:43:39.988Z,0.60
2022-10-16T12:46:10.154Z,0.25
2022-10-16T12:48:48.860Z,0.50
2022-10-16T12:51:28.725Z,0.50
2022-10-16T12:54:20.603Z,0.47
2022-10-16T12:57:07.032Z,0.47
2022-10-16T12:59:53.571Z,0.37
2022-10-16T13:02:58.402Z,0.70
2022-10-16T13:05:29.393Z,0.30
2022-10-16T13:08:27.055Z,0.37
2022-10-16T13:11:07.608Z,0.82
2022-10-16T13:13:46.928Z,0.60
2022-10-16T13:16:38.406Z,0.20
2022-10-16T13:19:17.242Z,0.52
2022-10-16T13:21:59.323Z,0.68
2022-10-16T13:24:57.055Z,0.50
2022-10-16T13:27:38.668Z,0.60
2022-10-16T13:30:30.852Z,0.75
2022-10-16T13:35:27.963Z,0.70
2022-10-16T13:38:21.456Z,0.30
2022-10-16T13:41:03.690Z,0.55
2022-10-16T13:43:35.935Z,0.43
2022-10-16T13:46:12.897Z,0.30
2022-10-16T13:48:39.797Z,0.35
2022-10-16T13:51:17.800Z,0.40
2022-10-16T13:53:46.444Z,0.70
2022-10-16T13:56:17.244Z,0.68
2022-10-16T13:58:44.634Z,0.55
2022-10-16T14:01:36.247Z,0.40
2022-10-16T14:04:10.162Z,0.30
2022-10-16T14:06:41.395Z,0.52
2022-10-16T14:09:29.203Z,0.25
2022-10-16T14:12:00.409Z,0.30
2022-10-16T14:14:41.742Z,0.30
2022-10-16T14:17:19.793Z,0.75
2022-10-16T14:19:51.494Z,0.65
2022-10-16T14:22:29.479Z,0.80
2022-10-16T14:24:57.582Z,0.70
2022-10-16T14:27:35.032Z,0.28
2022-10-16T14:30:19.238Z,0.47
2022-10-16T14:33:07.035Z,0.55
2022-10-16T14:35:37.102Z,0.25
2022-10-16T14:38:05.804Z,0.30
2022-10-16T14:40:35.896Z,0.10
2022-10-16T14:43:05.365Z,0.37
2022-10-16T14:45:35.829Z,0.43
2022-10-16T14:48:19.830Z,0.62
2022-10-16T14:50:47.835Z,0.20
2022-10-16T14:53:14.568Z,0.30
2022-10-16T14:55:42.455Z,0.10
2022-10-16T14:58:20.046Z,0.43
2022-10-16T15:00:47.372Z,0.00
2022-10-16T15:03:14.556Z,0.15
2022-10-16T15:05:41.391Z,0.10
2022-10-16T15:08:08.067Z,0.15
2022-10-16T15:10:40.660Z,0.40
2022-10-16T15:13:07.360Z,0.10
2022-10-16T15:15:38.232Z,0.52
2022-10-16T15:18:06.053Z,0.70
2022-10-16T15:20:36.019Z,0.30
2022-10-16T15:23:05.943Z,0.70
2022-10-16T15:25:40.693Z,0.60
2022-10-16T15:28:08.166Z,0.10
2022-10-16T15:30:36.437Z,0.50
2022-10-16T15:33:04.277Z,0.40
2022-10-16T15:35:31.370Z,0.25
2022-10-16T15:37:58.503Z,0.30
2022-10-16T15:40:25.244Z,0.75
2022-10-16T15:42:51.929Z,0.75
2022-10-16T15:45:20.215Z,0.60
2022-10-16T15:47:47.376Z,0.57
2022-10-16T15:50:16.551Z,0.77
2022-10-16T15:52:43.675Z,0.35
2022-10-16T15:55:12.287Z,0.68
2022-10-16T15:57:41.596Z,0.50
2022-10-16T16:00:11.201Z,0.40
2022-10-16T16:02:38.821Z,0.37
2022-10-16T16:05:07.472Z,0.57
2022-10-16T16:07:35.408Z,0.40
2022-10-16T16:10:02.973Z,0.77
2022-10-16T16:12:30.627Z,0.60
2022-10-16T16:14:58.894Z,0.82
2022-10-16T16:17:28.563Z,0.82
2022-10-16T16:19:55.515Z,0.25
2022-10-16T16:22:22.205Z,1.27
2022-10-16T16:24:48.958Z,0.70
2022-10-16T16:27:16.021Z,0.90
2022-10-16T16:29:43.018Z,1.27
2022-10-16T16:32:09.799Z,0.88
2022-10-16T16:34:36.749Z,0.62
2022-10-16T16:37:03.524Z,0.90
2022-10-16T16:39:30.364Z,0.65
2022-10-16T16:41:59.524Z,0.62
2022-10-16T16:44:26.649Z,0.65
2022-10-16T16:46:53.819Z,0.60
2022-10-16T16:49:20.750Z,0.98
2022-10-16T16:51:47.630Z,0.90
2022-10-16T16:54:14.909Z,0.50
2022-10-16T16:56:45.456Z,0.77
2022-10-16T16:59:17.803Z,0.70
2022-10-16T17:01:45.584Z,0.47
2022-10-16T17:04:12.526Z,0.70
2022-10-16T17:06:39.515Z,0.75
2022-10-16T17:09:07.554Z,0.65
2022-10-16T17:11:34.812Z,0.50
2022-10-16T17:14:02.571Z,0.82
2022-10-16T17:16:34.869Z,0.70
2022-10-16T17:21:34.855Z,0.60
2022-10-16T17:24:02.377Z,1.27
2022-10-16T17:26:30.178Z,1.23
2022-10-16T17:29:00.189Z,0.43
2022-10-16T17:31:32.459Z,0.45
2022-10-16T17:34:01.140Z,0.82
2022-10-16T17:36:31.015Z,0.68
2022-10-16T17:39:06.938Z,0.60
2022-10-16T17:41:36.343Z,0.93
2022-10-16T17:44:04.493Z,1.20
2022-10-16T17:46:35.689Z,0.43
2022-10-16T17:49:05.668Z,0.82
2022-10-16T17:51:32.743Z,0.93
2022-10-16T17:54:00.957Z,1.00
2022-10-16T17:56:29.521Z,0.60
2022-10-16T17:58:59.942Z,0.70
2022-10-16T18:01:30.216Z,0.77
2022-10-16T18:04:09.763Z,0.95
2022-10-16T18:06:37.140Z,0.50
2022-10-16T18:09:06.875Z,0.52
2022-10-16T18:11:34.011Z,0.80
2022-10-16T18:14:01.607Z,0.57
2022-10-16T18:16:30.879Z,0.50
2022-10-16T18:18:58.804Z,0.88
2022-10-16T18:21:30.256Z,0.30
2022-10-16T18:23:59.327Z,0.50
2022-10-16T18:26:26.480Z,0.52
2022-10-16T18:28:55.128Z,0.75
2022-10-16T18:31:23.202Z,0.55
2022-10-16T18:33:51.265Z,0.60
2022-10-16T18:36:22.180Z,0.93
2022-10-16T18:38:50.218Z,0.50
2022-10-16T18:41:16.900Z,0.52
2022-10-16T18:43:43.956Z,0.60
2022-10-16T18:46:13.838Z,0.68
2022-10-16T18:48:40.776Z,0.77
2022-10-16T18:51:18.156Z,0.20
2022-10-16T18:53:48.183Z,0.73
2022-10-16T18:56:16.412Z,0.57
2022-10-16T18:58:44.691Z,0.75
2022-10-16T19:01:16.277Z,0.30
2022-10-16T19:03:43.846Z,0.20
2022-10-16T19:06:13.359Z,0.50
2022-10-16T19:08:41.098Z,0.65
2022-10-16T19:11:15.158Z,0.82
2022-10-16T19:13:43.491Z,1.40
2022-10-16T19:16:20.267Z,0.90
2022-10-16T19:18:48.731Z,1.48
2022-10-16T19:21:16.282Z,1.20
2022-10-16T19:23:43.152Z,1.58
2022-10-16T19:26:13.100Z,1.20
2022-10-16T19:28:41.418Z,1.08
2022-10-16T19:31:11.968Z,1.20
2022-10-16T19:33:39.793Z,1.12
2022-10-16T19:36:11.484Z,1.55
2022-10-16T19:38:39.345Z,1.27
2022-10-16T19:41:10.713Z,1.30
2022-10-16T19:43:38.321Z,1.60
2022-10-16T19:46:25.921Z,1.30
2022-10-16T19:48:58.373Z,1.25
2022-10-16T19:51:26.750Z,0.88
2022-10-16T19:53:59.930Z,1.00
2022-10-16T19:56:29.339Z,0.80
2022-10-16T19:58:58.408Z,0.85
2022-10-16T20:01:31.002Z,1.03
2022-10-16T20:03:59.065Z,0.90
2022-10-16T20:06:26.145Z,1.08
2022-10-16T20:08:54.271Z,1.30
2022-10-16T20:11:24.148Z,0.90
2022-10-16T20:13:50.889Z,0.77
2022-10-16T20:16:19.206Z,1.20
2022-10-16T20:18:48.030Z,1.27
2022-10-16T20:21:21.932Z,1.35
2022-10-16T20:23:50.989Z,0.75
2022-10-16T20:26:19.960Z,0.70
2022-10-16T20:28:46.762Z,1.35
2022-10-16T20:31:22.867Z,1.45
2022-10-16T20:33:51.527Z,1.23
2022-10-16T20:36:20.158Z,1.15
2022-10-16T20:38:46.831Z,1.12
2022-10-16T20:41:13.981Z,1.10
2022-10-16T20:46:15.794Z,0.90
2022-10-16T20:48:47.137Z,0.90
2022-10-16T20:51:15.497Z,0.90
2022-10-16T20:53:43.946Z,1.52
2022-10-16T20:56:12.125Z,0.90
2022-10-16T20:58:40.775Z,1.12
2022-10-16T21:01:10.121Z,0.82
2022-10-16T21:03:38.069Z,0.70
2022-10-16T21:06:07.148Z,0.73
2022-10-16T21:08:39.116Z,0.50
2022-10-16T21:11:18.373Z,0.40
2022-10-16T21:13:45.975Z,0.62
2022-10-16T21:16:14.790Z,0.65
2022-10-16T21:18:44.783Z,0.80
2022-10-16T21:21:38.342Z,0.70
2022-10-16T21:24:06.565Z,0.52
2022-10-16T21:26:33.858Z,0.60
2022-10-16T21:29:03.937Z,0.30
2022-10-16T21:31:31.150Z,0.85
2022-10-16T21:33:58.172Z,0.50
2022-10-16T21:36:30.133Z,0.43
2022-10-16T21:41:28.928Z,0.52
2022-10-16T21:43:57.287Z,0.50
2022-10-16T21:46:26.700Z,0.40
2022-10-16T21:48:54.844Z,1.02
2022-10-16T21:51:26.571Z,0.65
2022-10-16T21:56:20.735Z,0.90
2022-10-16T21:58:47.711Z,1.05
2022-10-16T22:01:16.929Z,1.12
2022-10-16T22:03:45.338Z,0.93
2022-10-16T22:06:13.841Z,0.62
2022-10-16T22:08:40.840Z,1.23
2022-10-16T22:11:09.943Z,0.98
2022-10-16T22:13:36.800Z,0.80
2022-10-16T22:16:04.223Z,0.82
2022-10-16T22:18:32.347Z,0.93
2022-10-16T22:20:59.850Z,0.98
2022-10-16T22:23:26.613Z,0.85
2022-10-16T22:25:59.705Z,0.95
2022-10-16T22:28:26.356Z,0.90
2022-10-16T22:30:53.274Z,1.45
2022-10-16T22:33:20.758Z,0.65
2022-10-16T22:35:47.493Z,1.02
2022-10-16T22:38:14.366Z,0.88
2022-10-16T22:40:41.594Z,0.77
2022-10-16T22:43:08.287Z,1.45
2022-10-16T22:45:36.729Z,0.75
2022-10-16T22:48:04.133Z,0.95
2022-10-16T22:50:32.233Z,1.02
2022-10-16T22:52:59.288Z,0.43
2022-10-16T22:55:25.930Z,0.82
2022-10-16T22:57:56.101Z,1.17
2022-10-16T23:00:23.814Z,0.90
2022-10-16T23:02:50.455Z,0.82
2022-10-16T23:05:17.163Z,1.30
2022-10-16T23:07:44.785Z,1.23
2022-10-16T23:10:11.428Z,0.82
2022-10-16T23:12:38.115Z,1.58
2022-10-16T23:15:05.538Z,1.45
2022-10-16T23:17:32.193Z,1.17
2022-10-16T23:19:58.885Z,1.48
2022-10-16T23:22:26.009Z,1.33
2022-10-16T23:24:52.861Z,0.80
2022-10-16T23:27:19.451Z,1.50
2022-10-16T23:29:46.391Z,1.20
2022-10-16T23:32:13.024Z,1.05
2022-10-16T23:34:39.652Z,0.98
2022-10-16T23:37:06.725Z,0.90
2022-10-16T23:39:33.591Z,0.68
2022-10-16T23:42:00.209Z,0.98
2022-10-16T23:44:27.076Z,2.28
2022-10-16T23:46:53.821Z,1.00
2022-10-16T23:49:20.565Z,1.67
2022-10-16T23:51:47.451Z,0.77
2022-10-16T23:54:14.179Z,1.83
2022-10-16T23:56:40.879Z,1.05
2022-10-16T23:59:07.827Z,1.00
